Time;durP1;ratioP1;P1;durP2;ratioP2;P2;SDS_P1;SDS_P2;PMS_P1;PMS_P2;Temp;Humidity;BMP_temperature;BMP_pressure;BME280_temperature;BME280_humidity;BME280_pressure;Samples;Min_cycle;Max_cycle;Signal;HPM_P1;HPM_P2
2022/06/17 00:01:22;;;;;;;8.15;6.68;;;;;;;16.97;96.65;102374.47;5031407;28;20032;-66
2022/06/17 00:03:49;;;;;;;10.27;6.70;;;;;;;16.93;97.35;102365.75;5030971;28;20401;-66
2022/06/17 00:06:15;;;;;;;8.88;7.07;;;;;;;16.92;97.64;102365.78;5029407;28;20025;-66
2022/06/17 00:08:46;;;;;;;9.48;6.78;;;;;;;16.92;97.79;102364.00;5029623;28;20037;-67
2022/06/17 00:11:20;;;;;;;8.55;6.78;;;;;;;16.93;97.62;102357.72;5030047;28;20063;-67
2022/06/17 00:13:46;;;;;;;9.80;6.72;;;;;;;16.93;98.05;102354.16;5028766;28;20033;-66
2022/06/17 00:16:14;;;;;;;10.93;6.30;;;;;;;16.92;97.97;102345.28;5029681;28;20044;-67
2022/06/17 00:18:41;;;;;;;8.68;6.88;;;;;;;16.88;97.68;102351.69;5031091;28;20156;-66
2022/06/17 00:21:10;;;;;;;9.63;6.35;;;;;;;16.84;97.18;102348.28;5014024;28;20075;-67
2022/06/17 00:23:36;;;;;;;9.60;6.70;;;;;;;16.80;97.43;102365.44;5031220;28;20464;-66
2022/06/17 00:26:01;;;;;;;9.55;6.80;;;;;;;16.75;98.03;102350.50;5030641;28;20037;-67
2022/06/17 00:28:28;;;;;;;9.65;6.93;;;;;;;16.70;98.57;102350.72;5032329;28;20028;-67
2022/06/17 00:30:53;;;;;;;10.82;6.95;;;;;;;16.66;99.52;102355.38;5034907;28;20036;-67
2022/06/17 00:33:19;;;;;;;10.48;7.38;;;;;;;16.69;99.16;102354.34;5034457;28;20033;-65
2022/06/17 00:35:53;;;;;;;10.98;6.55;;;;;;;16.69;99.31;102347.19;5016720;28;20029;-65
2022/06/17 00:38:28;;;;;;;10.63;7.05;;;;;;;16.66;100.00;102347.34;5018042;28;20083;-66
2022/06/17 00:40:55;;;;;;;10.05;7.05;;;;;;;16.61;100.00;102348.47;5034707;28;20547;-66
2022/06/17 00:43:25;;;;;;;12.07;7.18;;;;;;;16.57;100.00;102350.41;5034731;28;20033;-65
2022/06/17 00:46:02;;;;;;;9.70;6.97;;;;;;;16.55;100.00;102344.28;5033960;28;20049;-65
2022/06/17 00:48:38;;;;;;;10.50;7.50;;;;;;;16.51;100.00;102345.38;5034160;28;20029;-65
2022/06/17 00:51:21;;;;;;;9.82;7.22;;;;;;;16.48;100.00;102342.84;5034673;28;20025;-65
2022/06/17 00:53:56;;;;;;;11.73;7.45;;;;;;;16.46;100.00;102342.91;5034482;28;20032;-66
2022/06/17 00:56:35;;;;;;;11.18;7.72;;;;;;;16.41;100.00;102346.72;5033553;28;20473;-67
2022/06/17 00:59:10;;;;;;;12.25;7.47;;;;;;;16.36;100.00;102345.13;5033767;28;20033;-67
2022/06/17 01:01:50;;;;;;;11.13;7.28;;;;;;;16.35;100.00;102343.38;5034397;28;20029;-66
2022/06/17 01:04:24;;;;;;;12.23;7.75;;;;;;;16.35;100.00;102354.06;5032845;28;20029;-66
2022/06/17 01:06:55;;;;;;;12.27;7.32;;;;;;;16.33;100.00;102352.41;5033688;28;20385;-67
2022/06/17 01:12:13;;;;;;;11.18;7.43;;;;;;;16.27;100.00;102344.69;5034596;28;20099;-66
2022/06/17 01:14:41;;;;;;;10.60;7.88;;;;;;;16.22;100.00;102348.41;5034107;28;20029;-66
2022/06/17 01:17:10;;;;;;;9.32;7.18;;;;;;;16.25;100.00;102357.25;5033934;28;20061;-66
2022/06/17 01:19:35;;;;;;;12.80;7.72;;;;;;;16.24;100.00;102351.03;5033828;28;20039;-65
2022/06/17 01:22:22;;;;;;;10.63;7.63;;;;;;;16.24;100.00;102353.72;5033957;28;20107;-66
2022/06/17 01:24:51;;;;;;;10.35;7.60;;;;;;;16.24;100.00;102351.03;5032432;28;20036;-67
2022/06/17 01:27:19;;;;;;;11.13;7.80;;;;;;;16.20;100.00;102347.63;5033456;28;20134;-67
2022/06/17 01:29:45;;;;;;;11.68;8.27;;;;;;;16.16;100.00;102345.16;5033687;28;20484;-66
2022/06/17 01:32:12;;;;;;;10.68;7.90;;;;;;;16.15;100.00;102344.28;5033806;28;20022;-66
2022/06/17 01:34:38;;;;;;;12.38;8.27;;;;;;;16.16;100.00;102348.72;5032104;28;20029;-66
2022/06/17 01:37:05;;;;;;;11.60;8.00;;;;;;;16.18;100.00;102343.28;5033285;28;20037;-67
2022/06/17 01:39:31;;;;;;;10.27;7.43;;;;;;;16.19;100.00;102340.53;5032078;28;20037;-67
2022/06/17 01:41:56;;;;;;;11.73;7.97;;;;;;;16.20;100.00;102346.75;5033155;28;20163;-67
2022/06/17 01:44:25;;;;;;;11.73;8.07;;;;;;;16.17;100.00;102338.88;5031494;28;20128;-67
2022/06/17 01:46:55;;;;;;;12.13;9.27;;;;;;;16.15;100.00;102336.28;5033163;28;20021;-67
2022/06/17 01:49:26;;;;;;;11.55;8.60;;;;;;;16.14;100.00;102328.31;5033344;28;20440;-66
2022/06/17 01:51:57;;;;;;;15.63;8.68;;;;;;;16.10;100.00;102327.59;5033454;28;20516;-67
2022/06/17 01:54:28;;;;;;;11.10;8.53;;;;;;;16.05;100.00;102322.44;5032096;28;20445;-66
2022/06/17 01:56:57;;;;;;;11.98;8.75;;;;;;;16.01;100.00;102320.84;5030206;28;20288;-67
2022/06/17 01:59:35;;;;;;;13.38;9.50;;;;;;;15.98;100.00;102320.97;5033072;28;20465;-67
2022/06/17 02:02:02;;;;;;;13.75;9.05;;;;;;;15.99;100.00;102325.38;5033218;28;20025;-67
2022/06/17 02:04:33;;;;;;;12.63;9.07;;;;;;;16.02;100.00;102338.63;5033007;28;20453;-67
2022/06/17 02:07:12;;;;;;;14.88;9.52;;;;;;;16.03;100.00;102332.31;5031214;28;20029;-67
2022/06/17 02:09:37;;;;;;;12.80;8.80;;;;;;;16.09;100.00;102341.00;5033020;28;20033;-67
2022/06/17 02:12:05;;;;;;;12.65;9.23;;;;;;;16.11;100.00;102344.50;5032919;28;20503;-67
2022/06/17 02:14:33;;;;;;;13.10;9.90;;;;;;;16.13;100.00;102339.97;5032990;28;20037;-67
2022/06/17 02:16:59;;;;;;;14.60;9.73;;;;;;;16.16;100.00;102339.81;5031776;28;20025;-67
2022/06/17 02:19:27;;;;;;;11.98;9.00;;;;;;;16.19;100.00;102340.53;5032701;28;20039;-67
2022/06/17 02:21:59;;;;;;;14.05;9.88;;;;;;;16.26;100.00;102342.94;5032775;28;20021;-67
2022/06/17 02:24:25;;;;;;;11.65;9.73;;;;;;;16.27;100.00;102340.19;5032689;28;20056;-65
2022/06/17 02:26:51;;;;;;;14.77;10.20;;;;;;;16.29;100.00;102345.47;5030628;28;20025;-65
2022/06/17 02:29:18;;;;;;;13.77;9.52;;;;;;;16.27;100.00;102350.88;5032640;28;20397;-65
2022/06/17 02:31:43;;;;;;;12.85;9.13;;;;;;;16.27;100.00;102342.88;5032595;28;20026;-66
2022/06/17 02:34:13;;;;;;;13.35;9.80;;;;;;;16.27;100.00;102342.00;5032878;28;20025;-66
2022/06/17 02:36:47;;;;;;;13.15;9.75;;;;;;;16.26;100.00;102343.81;5032018;28;20032;-66
2022/06/17 02:39:13;;;;;;;13.45;10.13;;;;;;;16.25;100.00;102338.53;5030738;28;20401;-66
2022/06/17 02:41:40;;;;;;;14.63;9.88;;;;;;;16.26;100.00;102340.28;5032528;28;20025;-65
2022/06/17 02:44:16;;;;;;;12.13;9.48;;;;;;;16.27;100.00;102339.34;5031321;28;20053;-66
2022/06/17 02:46:43;;;;;;;14.57;8.90;;;;;;;16.27;100.00;102342.88;5030541;28;20057;-66
2022/06/17 02:49:16;;;;;;;15.68;9.73;;;;;;;16.31;100.00;102340.94;5032208;28;20499;-66
2022/06/17 02:51:43;;;;;;;17.00;10.10;;;;;;;16.32;100.00;102340.84;5030920;28;20041;-66
2022/06/17 02:54:15;;;;;;;11.23;9.48;;;;;;;16.34;100.00;102355.03;5032598;28;20041;-67
2022/06/17 02:56:46;;;;;;;13.00;10.07;;;;;;;16.37;100.00;102343.34;5030659;28;20030;-68
2022/06/17 02:59:35;;;;;;;12.80;10.10;;;;;;;16.40;100.00;102345.84;5030575;28;20071;-68
2022/06/17 03:02:12;;;;;;;12.98;10.18;;;;;;;16.42;100.00;102335.09;5031914;28;20109;-66
2022/06/17 03:04:43;;;;;;;11.88;9.20;;;;;;;16.45;100.00;102335.81;5032150;28;20039;-66
2022/06/17 03:07:17;;;;;;;14.45;9.82;;;;;;;16.49;100.00;102332.06;5031532;28;20022;-66
2022/06/17 03:09:43;;;;;;;11.75;10.00;;;;;;;16.54;100.00;102329.19;5031476;28;20056;-67
2022/06/17 03:12:22;;;;;;;14.32;10.00;;;;;;;16.59;100.00;102323.63;5031767;28;20021;-67
2022/06/17 03:15:01;;;;;;;16.55;10.18;;;;;;;16.65;100.00;102334.91;5031685;28;20044;-66
2022/06/17 03:17:26;;;;;;;15.10;9.90;;;;;;;16.68;100.00;102326.72;5031302;28;20021;-66
2022/06/17 03:19:55;;;;;;;14.98;9.30;;;;;;;16.70;100.00;102330.22;5031250;28;20125;-68
2022/06/17 03:22:20;;;;;;;13.40;10.50;;;;;;;16.77;100.00;102329.91;5029093;28;20100;-67
2022/06/17 03:25:11;;;;;;;12.35;9.70;;;;;;;16.88;100.00;102325.78;5027955;28;20527;-67
2022/06/17 03:27:37;;;;;;;11.90;8.82;;;;;;;16.97;100.00;102326.31;5030318;28;20473;-67
2022/06/17 03:30:04;;;;;;;15.45;9.75;;;;;;;17.04;100.00;102328.59;5029758;28;20032;-66
2022/06/17 03:32:36;;;;;;;13.10;9.27;;;;;;;17.07;100.00;102324.91;5031348;28;20086;-66
2022/06/17 03:35:02;;;;;;;11.88;8.50;;;;;;;17.12;100.00;102333.63;5013656;28;20040;-66
2022/06/17 03:37:38;;;;;;;10.70;8.18;;;;;;;17.17;100.00;102323.56;5031343;28;20029;-66
2022/06/17 03:40:16;;;;;;;14.20;8.95;;;;;;;17.16;99.57;102321.81;5029537;28;20029;-66
2022/06/17 03:43:03;;;;;;;13.05;9.43;;;;;;;17.19;99.44;102323.47;5012143;28;20502;-66
2022/06/17 03:45:43;;;;;;;11.63;8.75;;;;;;;17.23;98.75;102324.19;5021369;28;20497;-67
2022/06/17 03:48:21;;;;;;;14.05;9.43;;;;;;;17.29;99.22;102334.56;5031644;28;20488;-67
2022/06/17 03:50:47;;;;;;;11.55;8.50;;;;;;;17.32;99.09;102339.78;5030742;28;20026;-67
2022/06/17 03:53:26;;;;;;;14.40;8.63;;;;;;;17.35;99.09;102331.59;5031612;28;20055;-67
2022/06/17 03:55:54;;;;;;;12.60;8.13;;;;;;;17.40;99.12;102328.69;5031453;28;20108;-67
2022/06/17 03:58:20;;;;;;;11.57;8.63;;;;;;;17.43;98.50;102337.44;5031238;28;20041;-67
2022/06/17 04:00:58;;;;;;;11.85;7.97;;;;;;;17.48;98.52;102332.72;5030990;28;20029;-66
2022/06/17 04:03:29;;;;;;;10.10;7.75;;;;;;;17.55;98.10;102319.88;5032224;28;20037;-66
2022/06/17 04:06:00;;;;;;;14.30;8.02;;;;;;;17.56;98.96;102323.41;5035239;28;20481;-66
2022/06/17 04:08:25;;;;;;;10.23;7.50;;;;;;;17.53;99.52;102317.28;5034967;28;20427;-67
2022/06/17 04:10:51;;;;;;;12.07;8.05;;;;;;;17.60;99.54;102317.84;5033269;28;20029;-67
2022/06/17 04:13:20;;;;;;;10.82;7.72;;;;;;;17.66;98.59;102317.53;5034462;28;20038;-67
2022/06/17 04:16:02;;;;;;;11.90;7.60;;;;;;;17.77;97.22;102316.97;5034749;28;20401;-66
2022/06/17 04:18:33;;;;;;;12.00;7.35;;;;;;;17.88;95.80;102320.91;5034881;28;20112;-66
2022/06/17 04:20:58;;;;;;;11.48;7.43;;;;;;;17.95;95.75;102317.00;5032815;28;20469;-66
2022/06/17 04:23:27;;;;;;;11.57;7.22;;;;;;;17.96;95.90;102311.53;5047905;28;20125;-66
2022/06/17 04:25:58;;;;;;;9.70;6.97;;;;;;;17.94;96.54;102318.81;5035050;28;20017;-66
2022/06/17 04:28:52;;;;;;;12.95;7.43;;;;;;;17.99;96.37;102315.88;5034857;28;20511;-66
2022/06/17 04:31:24;;;;;;;10.70;6.72;;;;;;;18.05;96.17;102310.19;5032467;28;20036;-66
2022/06/17 04:33:54;;;;;;;;;;;;;;;18.07;95.71;102319.03;5033049;28;20029;-66
2022/06/17 04:36:24;;;;;;;9.57;6.35;;;;;;;18.08;95.79;102314.53;5032885;28;19920;-66
2022/06/17 04:38:56;;;;;;;14.50;7.43;;;;;;;18.04;96.63;102305.78;5033314;28;20056;-66
2022/06/17 04:41:27;;;;;;;13.30;7.43;;;;;;;18.01;97.35;102301.44;5034128;28;20052;-66
2022/06/17 04:43:56;;;;;;;12.27;6.35;;;;;;;18.07;97.55;102307.44;5029855;28;20025;-66
2022/06/17 04:46:58;;;;;;;11.30;7.00;;;;;;;18.18;94.94;102297.88;5034641;28;20045;-66
2022/06/17 04:49:28;;;;;;;11.30;6.65;;;;;;;18.34;92.50;102307.78;5033657;28;20515;-66
2022/06/17 04:52:01;;;;;;;10.98;6.10;;;;;;;18.47;92.54;102306.13;5034238;28;20025;-66
2022/06/17 04:54:29;;;;;;;9.98;6.63;;;;;;;18.51;93.29;102306.84;5031428;28;20037;-66
2022/06/17 04:56:58;;;;;;;13.60;7.05;;;;;;;18.52;93.46;102308.56;5032752;28;20477;-67
2022/06/17 04:59:33;;;;;;;9.65;6.60;;;;;;;18.61;89.98;102300.00;5033956;28;20045;-66
2022/06/17 05:02:01;;;;;;;12.80;6.25;;;;;;;18.69;88.33;102291.53;5033342;28;20025;-66
2022/06/17 05:04:27;;;;;;;10.13;6.78;;;;;;;18.73;87.75;102295.75;5028792;28;20401;-66
2022/06/17 05:06:53;;;;;;;11.73;6.50;;;;;;;18.77;87.05;102283.03;5030384;28;20021;-66
2022/06/17 05:09:27;;;;;;;10.77;6.13;;;;;;;18.82;86.76;102287.22;5031134;28;20035;-67
2022/06/17 05:12:06;;;;;;;14.35;6.78;;;;;;;18.90;86.17;102283.25;5032887;28;20029;-67
2022/06/17 05:14:43;;;;;;;10.23;5.95;;;;;;;18.93;85.64;102277.72;5032820;28;20038;-67
2022/06/17 05:17:09;;;;;;;10.10;5.63;;;;;;;18.97;84.69;102287.31;5034038;28;20032;-67
2022/06/17 05:19:34;;;;;;;9.70;5.43;;;;;;;19.02;83.99;102289.75;5032419;28;20124;-67
2022/06/17 05:22:02;;;;;;;11.60;5.65;;;;;;;19.07;85.07;102284.97;5033270;28;20029;-67
2022/06/17 05:24:28;;;;;;;11.10;5.90;;;;;;;19.14;83.30;102279.16;5032793;28;20183;-66
2022/06/17 05:26:53;;;;;;;10.48;5.80;;;;;;;19.23;83.58;102283.09;5032638;28;20126;-67
2022/06/17 05:29:18;;;;;;;9.10;5.65;;;;;;;19.30;83.72;102272.88;5033291;28;20108;-67
2022/06/17 05:31:49;;;;;;;7.88;5.22;;;;;;;19.34;82.34;102269.06;5033135;28;20067;-67
2022/06/17 05:34:15;;;;;;;10.88;5.13;;;;;;;19.41;82.49;102264.19;5031829;28;20499;-67
2022/06/17 05:36:40;;;;;;;11.10;6.05;;;;;;;19.51;82.31;102270.72;5015380;28;20162;-66
2022/06/17 05:39:05;;;;;;;11.10;5.32;;;;;;;19.58;80.82;102272.09;5033550;28;20041;-66
2022/06/17 05:41:31;;;;;;;13.73;5.90;;;;;;;19.64;80.00;102273.53;5014731;28;20075;-66
2022/06/17 05:43:56;;;;;;;8.90;5.38;;;;;;;19.68;78.11;102282.28;5014959;28;20429;-66
2022/06/17 05:46:21;;;;;;;11.40;5.50;;;;;;;19.72;78.36;102273.06;5032165;28;20080;-67
2022/06/17 05:48:47;;;;;;;8.70;5.18;;;;;;;19.77;77.67;102274.53;5032875;28;20029;-67
2022/06/17 05:51:13;;;;;;;9.40;5.13;;;;;;;19.87;76.32;102280.22;5028552;28;20397;-66
2022/06/17 05:53:39;;;;;;;8.68;5.22;;;;;;;19.98;75.84;102279.59;5031751;28;20385;-65
2022/06/17 05:56:05;;;;;;;10.55;5.45;;;;;;;20.10;75.22;102272.56;5012022;28;20030;-66
2022/06/17 05:58:30;;;;;;;7.63;5.53;;;;;;;20.25;73.86;102270.75;5029948;28;20065;-66
2022/06/17 06:00:55;;;;;;;12.50;5.95;;;;;;;20.37;74.17;102269.09;5032234;28;20108;-67
2022/06/17 06:03:26;;;;;;;8.75;5.28;;;;;;;20.50;72.58;102264.66;5032512;28;20064;-67
2022/06/17 06:05:51;;;;;;;10.43;5.70;;;;;;;20.62;73.03;102265.69;5032013;28;20025;-67
2022/06/17 06:08:16;;;;;;;10.38;5.55;;;;;;;20.66;72.70;102251.06;5032731;28;20461;-67
2022/06/17 06:10:43;;;;;;;12.50;6.80;;;;;;;20.62;71.60;102258.47;5031683;28;20527;-67
2022/06/17 06:13:14;;;;;;;10.93;6.30;;;;;;;20.62;71.60;102260.31;5031724;28;20072;-67
2022/06/17 06:15:42;;;;;;;11.32;6.43;;;;;;;20.68;71.33;102254.53;5032717;28;20091;-66
2022/06/17 06:18:17;;;;;;;11.32;7.20;;;;;;;20.73;71.50;102251.56;5032435;28;20040;-66
2022/06/17 06:20:42;;;;;;;10.68;6.53;;;;;;;20.79;70.79;102243.06;5031232;28;20028;-68
2022/06/17 06:23:08;;;;;;;11.05;6.40;;;;;;;20.82;69.83;102258.16;5030673;28;20041;-66
2022/06/17 06:25:34;;;;;;;11.93;6.88;;;;;;;20.79;69.26;102261.91;5034605;28;20445;-67
2022/06/17 06:28:11;;;;;;;14.20;7.18;;;;;;;20.82;70.35;102266.25;5030334;28;20493;-67
2022/06/17 06:30:37;;;;;;;15.18;6.50;;;;;;;20.82;68.54;102258.16;5040981;28;20041;-67
2022/06/17 06:33:03;;;;;;;13.43;6.60;;;;;;;20.81;67.98;102260.00;5030811;28;20029;-68
2022/06/17 06:35:32;;;;;;;11.05;6.65;;;;;;;20.87;68.87;102251.53;5030979;28;20100;-66
2022/06/17 06:37:58;;;;;;;13.95;6.38;;;;;;;20.94;67.55;102254.66;5031243;28;20018;-66
2022/06/17 06:40:23;;;;;;;10.70;6.43;;;;;;;20.98;66.85;102249.94;5031482;28;20105;-68
2022/06/17 06:42:50;;;;;;;11.43;6.57;;;;;;;21.02;66.96;102268.47;5033494;28;20052;-68
2022/06/17 06:45:28;;;;;;;9.07;6.00;;;;;;;21.14;66.88;102268.63;5031440;28;20049;-66
2022/06/17 06:47:55;;;;;;;14.95;6.18;;;;;;;21.27;67.52;102272.22;5027081;28;20048;-66
2022/06/17 06:50:24;;;;;;;11.60;5.82;;;;;;;21.47;66.60;102270.00;5030986;28;20025;-67
2022/06/17 06:52:49;;;;;;;11.13;6.25;;;;;;;21.60;65.29;102270.94;5032494;28;20022;-68
2022/06/17 06:55:15;;;;;;;11.35;6.15;;;;;;;21.69;65.85;102278.38;5029824;28;20079;-67
2022/06/17 06:57:52;;;;;;;12.02;5.80;;;;;;;21.76;63.89;102268.00;5031685;28;20063;-67
2022/06/17 07:00:35;;;;;;;13.57;5.80;;;;;;;21.82;65.44;102258.66;5020808;28;20033;-67
2022/06/17 07:03:01;;;;;;;15.85;5.70;;;;;;;21.67;64.54;102253.34;5030361;28;20026;-67
2022/06/17 07:05:27;;;;;;;12.18;6.05;;;;;;;21.63;64.91;102251.84;5031062;28;20113;-67
2022/06/17 07:07:53;;;;;;;9.52;5.95;;;;;;;21.75;64.18;102252.81;5031059;28;20108;-67
2022/06/17 07:10:24;;;;;;;7.95;5.20;;;;;;;21.82;63.76;102264.03;5030949;28;20056;-67
2022/06/17 07:12:49;;;;;;;8.95;4.90;;;;;;;21.91;63.69;102266.94;5031321;28;20025;-67
2022/06/17 07:15:16;;;;;;;8.20;5.28;;;;;;;21.98;61.45;102275.44;5030208;28;20037;-67
2022/06/17 07:17:55;;;;;;;11.00;5.00;;;;;;;21.97;61.93;102276.44;5031040;28;20029;-67
2022/06/17 07:20:21;;;;;;;10.32;4.97;;;;;;;22.04;60.44;102282.25;5029001;28;20030;-67
2022/06/17 07:22:47;;;;;;;12.18;5.30;;;;;;;22.20;59.77;102284.72;5031100;28;20033;-66
2022/06/17 07:25:12;;;;;;;9.55;5.00;;;;;;;22.22;59.57;102285.47;5029443;28;20083;-67
2022/06/17 07:27:38;;;;;;;9.20;4.63;;;;;;;22.25;58.79;102288.81;5031395;28;20061;-67
2022/06/17 07:30:04;;;;;;;8.20;4.85;;;;;;;22.30;58.33;102291.16;5031394;28;20057;-67
2022/06/17 07:32:29;;;;;;;8.23;4.57;;;;;;;22.29;57.21;102289.47;5032467;28;20051;-66
2022/06/17 07:34:55;;;;;;;10.38;4.57;;;;;;;22.40;57.56;102288.72;5019538;28;20030;-66
2022/06/17 07:40:05;;;;;;;8.73;4.72;;;;;;;22.66;58.02;102277.84;5034199;28;20036;-66
2022/06/17 07:42:39;;;;;;;9.65;4.15;;;;;;;22.70;56.92;102273.97;5041510;28;20029;-67
2022/06/17 07:45:09;;;;;;;7.95;4.00;;;;;;;22.81;55.37;102273.16;5035185;28;20053;-66
2022/06/17 07:47:36;;;;;;;12.25;4.50;;;;;;;22.88;55.38;102263.63;5036225;28;20052;-66
2022/06/17 07:50:03;;;;;;;7.45;3.70;;;;;;;22.97;53.78;102265.63;5045619;28;20037;-67
2022/06/17 07:52:28;;;;;;;8.82;3.65;;;;;;;23.05;52.82;102254.25;5034835;28;20026;-67
2022/06/17 07:54:54;;;;;;;6.75;3.70;;;;;;;23.16;52.76;102264.25;5034799;28;20118;-66
2022/06/17 07:57:19;;;;;;;9.85;3.50;;;;;;;23.33;52.30;102269.25;5034754;28;20030;-66
2022/06/17 07:59:44;;;;;;;6.30;3.22;;;;;;;23.48;52.60;102261.81;5033988;28;20029;-67
2022/06/17 08:02:10;;;;;;;7.57;3.30;;;;;;;23.40;47.91;102273.22;5034353;28;20025;-67
2022/06/17 08:04:36;;;;;;;6.07;2.95;;;;;;;23.37;48.29;102283.38;5033797;28;20421;-68
2022/06/17 08:07:02;;;;;;;6.05;3.40;;;;;;;23.35;48.32;102279.94;5034618;28;20021;-67
2022/06/17 08:09:28;;;;;;;7.25;3.28;;;;;;;23.38;48.52;102280.56;5034302;28;20083;-68
2022/06/17 08:11:54;;;;;;;6.72;3.35;;;;;;;23.46;48.51;102285.38;5020678;28;20431;-67
2022/06/17 08:14:20;;;;;;;6.00;3.35;;;;;;;23.53;48.33;102281.22;5045475;28;20029;-67
2022/06/17 08:16:45;;;;;;;6.32;3.40;;;;;;;23.64;49.54;102282.25;5044410;28;20040;-67
2022/06/17 08:19:11;;;;;;;6.80;2.90;;;;;;;23.90;49.03;102282.88;5033606;28;20593;-67
2022/06/17 08:21:36;;;;;;;5.68;3.20;;;;;;;24.09;47.30;102273.34;5028274;28;20028;-67
2022/06/17 08:24:02;;;;;;;7.10;4.53;;;;;;;24.30;47.33;102273.47;5049836;28;20025;-67
2022/06/17 08:26:27;;;;;;;4.22;3.10;;;;;;;24.39;47.05;102278.13;5042294;28;20033;-67
2022/06/17 08:28:52;;;;;;;5.07;3.10;;;;;;;24.52;44.67;102275.28;5034115;28;20083;-67
2022/06/17 08:31:18;;;;;;;5.13;2.92;;;;;;;24.44;45.30;102275.91;5034008;28;20030;-67
2022/06/17 08:33:43;;;;;;;8.52;3.22;;;;;;;24.70;44.62;102283.78;5043523;28;20032;-67
2022/06/17 08:36:12;;;;;;;6.60;2.97;;;;;;;24.93;43.96;102291.84;5034382;28;20025;-65
2022/06/17 08:38:41;;;;;;;8.55;3.42;;;;;;;25.58;42.77;102295.41;5033776;28;20029;-67
2022/06/17 08:41:25;;;;;;;9.15;3.08;;;;;;;26.71;41.11;102293.63;5033723;28;20025;-67
2022/06/17 08:44:18;;;;;;;6.38;3.25;;;;;;;27.82;38.33;102290.66;5026703;28;20388;-66
2022/06/17 08:47:02;;;;;;;11.00;3.40;;;;;;;28.78;35.95;102292.25;5031984;28;20041;-67
2022/06/17 08:49:34;;;;;;;8.55;3.60;;;;;;;28.96;38.61;102285.97;5031101;28;20048;-66
2022/06/17 08:52:20;;;;;;;4.30;2.80;;;;;;;29.68;33.60;102289.50;5025762;28;20190;-67
2022/06/17 08:55:05;;;;;;;7.53;3.30;;;;;;;29.70;32.63;102281.16;5021381;28;20033;-65
2022/06/17 08:57:52;;;;;;;6.57;3.20;;;;;;;29.51;32.93;102296.69;5033849;28;20117;-67
2022/06/17 09:00:30;;;;;;;9.43;3.33;;;;;;;29.68;33.41;102278.59;5031626;28;20059;-67
2022/06/17 09:03:17;;;;;;;10.10;3.60;;;;;;;30.05;33.38;102287.50;5031970;28;20481;-67
2022/06/17 09:06:12;;;;;;;9.38;3.30;;;;;;;30.23;32.46;102293.75;5028178;28;20035;-67
2022/06/17 09:09:02;;;;;;;8.73;3.35;;;;;;;30.64;32.31;102294.94;5027889;28;20049;-66
2022/06/17 09:12:07;;;;;;;5.70;3.10;;;;;;;30.48;31.30;102293.88;5019935;28;20163;-67
2022/06/17 09:14:55;;;;;;;6.68;3.28;;;;;;;30.46;31.80;102297.75;5033277;28;20119;-67
2022/06/17 09:17:58;;;;;;;7.00;3.22;;;;;;;30.13;30.46;102292.16;5038189;28;20025;-67
2022/06/17 09:20:30;;;;;;;8.77;3.90;;;;;;;30.27;31.39;102293.41;5029069;28;20452;-66
2022/06/17 09:23:00;;;;;;;8.02;3.58;;;;;;;30.28;31.06;102289.66;5032968;28;20025;-66
2022/06/17 09:25:32;;;;;;;5.57;3.05;;;;;;;30.39;30.69;102294.84;5030983;28;20036;-66
2022/06/17 09:27:59;;;;;;;5.97;3.00;;;;;;;30.64;33.04;102279.41;5036824;28;20431;-67
2022/06/17 09:30:32;;;;;;;9.05;3.00;;;;;;;31.14;28.93;102287.69;5032260;28;20120;-67
2022/06/17 09:33:26;;;;;;;8.68;3.22;;;;;;;31.15;29.27;102287.53;5037355;28;20088;-67
2022/06/17 09:36:07;;;;;;;9.73;3.40;;;;;;;31.27;29.26;102277.09;5034709;28;20021;-67
2022/06/17 09:38:40;;;;;;;8.73;3.20;;;;;;;31.15;28.76;102284.81;5030565;28;20032;-66
2022/06/17 09:41:17;;;;;;;6.95;3.10;;;;;;;31.04;29.18;102290.59;5021572;28;20021;-66
2022/06/17 09:43:52;;;;;;;8.35;3.00;;;;;;;31.16;28.91;102280.19;5032809;28;20041;-66
2022/06/17 09:46:50;;;;;;;7.00;2.80;;;;;;;31.10;31.02;102272.66;5036085;28;20048;-67
2022/06/17 09:49:32;;;;;;;5.38;3.00;;;;;;;31.67;28.83;102280.84;5035606;28;20069;-67
2022/06/17 09:52:03;;;;;;;8.52;3.10;;;;;;;32.23;28.04;102271.78;5044559;28;20013;-68
2022/06/17 09:54:37;;;;;;;6.75;3.45;;;;;;;31.88;28.21;102262.97;5031553;28;20029;-66
2022/06/17 09:57:10;;;;;;;9.02;3.50;;;;;;;32.27;27.74;102269.56;5036711;28;20033;-66
2022/06/17 09:59:45;;;;;;;6.80;3.10;;;;;;;31.97;29.13;102266.53;5038035;28;20025;-67
2022/06/17 10:02:29;;;;;;;6.68;3.20;;;;;;;31.86;26.93;102263.16;5052043;28;20124;-67
2022/06/17 10:04:56;;;;;;;6.78;3.65;;;;;;;31.80;27.89;102272.06;5026316;28;20037;-67
2022/06/17 10:07:26;;;;;;;7.43;3.92;;;;;;;31.25;28.17;102254.50;5035429;28;20029;-67
2022/06/17 10:10:21;;;;;;;7.75;3.45;;;;;;;31.28;28.82;102245.97;5040228;28;20030;-68
2022/06/17 10:13:00;;;;;;;9.75;3.70;;;;;;;31.13;28.06;102240.34;5028619;28;20034;-68
2022/06/17 10:15:41;;;;;;;7.78;3.55;;;;;;;31.40;28.96;102245.63;5028992;28;20041;-66
2022/06/17 10:18:43;;;;;;;14.18;4.18;;;;;;;31.70;28.54;102249.50;5025392;28;20551;-66
2022/06/17 10:21:33;;;;;;;9.40;3.85;;;;;;;31.94;27.45;102242.25;5019834;28;20040;-68
2022/06/17 10:24:20;;;;;;;7.10;4.05;;;;;;;31.59;28.34;102238.88;5030881;28;20476;-66
2022/06/17 10:27:06;;;;;;;7.88;3.78;;;;;;;31.94;27.34;102243.09;5031156;28;20120;-67
2022/06/17 10:29:36;;;;;;;7.53;3.40;;;;;;;31.92;28.43;102247.06;5039500;28;20044;-66
2022/06/17 10:32:03;;;;;;;;;;;;;;;32.10;27.34;102241.31;5031467;28;20048;-66
2022/06/17 10:34:46;;;;;;;9.50;4.10;;;;;;;32.15;27.08;102238.91;5038925;28;19909;-66
2022/06/17 10:37:13;;;;;;;7.10;4.22;;;;;;;32.30;28.11;102228.91;5024676;28;20423;-66
2022/06/17 10:39:39;;;;;;;9.10;4.13;;;;;;;32.10;27.39;102227.63;5031520;28;20025;-67
2022/06/17 10:42:09;;;;;;;9.18;3.95;;;;;;;31.94;28.21;102220.34;5011345;28;20087;-66
2022/06/17 10:44:36;;;;;;;8.70;3.90;;;;;;;32.19;28.08;102221.13;5022120;28;20053;-66
2022/06/17 10:47:45;;;;;;;7.32;4.18;;;;;;;32.53;27.60;102222.63;5029986;28;20055;-67
2022/06/17 10:50:22;;;;;;;8.35;3.60;;;;;;;32.65;27.23;102223.91;5024186;28;20469;-67
2022/06/17 10:52:57;;;;;;;7.72;3.60;;;;;;;32.78;28.94;102217.84;5031765;28;20053;-67
2022/06/17 10:55:55;;;;;;;7.80;4.20;;;;;;;32.95;27.46;102215.81;5030434;28;20096;-67
2022/06/17 10:58:24;;;;;;;8.30;4.28;;;;;;;32.51;26.50;102213.75;5019418;28;20494;-66
2022/06/17 11:00:54;;;;;;;7.57;4.28;;;;;;;32.34;26.98;102208.34;5030704;28;20036;-67
2022/06/17 11:03:30;;;;;;;9.38;4.32;;;;;;;32.63;27.81;102198.53;5031559;28;20025;-66
2022/06/17 11:05:58;;;;;;;8.93;4.10;;;;;;;32.77;28.02;102201.56;5029737;28;20056;-66
2022/06/17 11:08:28;;;;;;;9.75;4.38;;;;;;;32.55;27.67;102192.25;5041665;28;20036;-67
2022/06/17 11:10:57;;;;;;;9.67;3.83;;;;;;;32.67;27.79;102197.16;5031104;28;20025;-67
2022/06/17 11:13:24;;;;;;;8.02;4.60;;;;;;;32.77;29.31;102177.72;5031061;28;20029;-66
2022/06/17 11:15:56;;;;;;;6.18;3.47;;;;;;;33.17;28.23;102186.63;5014164;28;20029;-68
2022/06/17 11:18:32;;;;;;;7.63;3.70;;;;;;;33.40;27.35;102179.41;5030221;28;20026;-66
2022/06/17 11:21:04;;;;;;;8.20;4.15;;;;;;;33.30;27.29;102171.44;5031048;28;20037;-67
2022/06/17 11:23:35;;;;;;;7.63;4.32;;;;;;;33.08;26.76;102174.00;5031054;28;20488;-66
2022/06/17 11:26:21;;;;;;;9.23;3.92;;;;;;;32.86;27.13;102163.97;5030185;28;20107;-67
2022/06/17 11:28:54;;;;;;;7.90;3.72;;;;;;;33.06;27.52;102170.63;5031005;28;20032;-67
2022/06/17 11:31:19;;;;;;;8.60;5.15;;;;;;;33.05;27.05;102162.59;5030681;28;20040;-66
2022/06/17 11:33:53;;;;;;;6.33;3.37;;;;;;;33.24;28.04;102173.00;5035858;28;20029;-66
2022/06/17 11:36:20;;;;;;;7.80;3.90;;;;;;;33.23;26.15;102181.44;5032369;28;20307;-67
2022/06/17 11:38:46;;;;;;;8.05;3.70;;;;;;;32.95;26.67;102182.03;5045816;28;20488;-66
2022/06/17 11:41:23;;;;;;;6.70;3.40;;;;;;;32.96;26.72;102170.88;5033514;28;20036;-68
2022/06/17 11:43:49;;;;;;;5.60;3.13;;;;;;;33.20;27.31;102176.31;5028726;28;20025;-66
2022/06/17 11:46:19;;;;;;;7.40;3.40;;;;;;;33.43;25.78;102185.38;5030736;28;20081;-66